createdAt,value
2018-03-03T00:00:46.258Z,98731.34
2018-03-03T00:03:14.673Z,98742.94
2018-03-03T00:05:43.126Z,98742.75
2018-03-03T00:08:11.564Z,98746.95
2018-03-03T00:10:40.000Z,98742.36
2018-03-03T00:13:08.488Z,98739.22
2018-03-03T00:15:36.940Z,98735.73
2018-03-03T00:18:05.377Z,98739.94
2018-03-03T00:20:33.851Z,98737.03
2018-03-03T00:23:02.263Z,98734.23
2018-03-03T00:25:30.694Z,98730.89
2018-03-03T00:27:59.172Z,98724.45
2018-03-03T00:30:27.599Z,98726.11
2018-03-03T00:32:56.017Z,98733.00
2018-03-03T00:35:24.486Z,98730.14
2018-03-03T00:37:52.917Z,98723.62
2018-03-03T00:40:21.340Z,98727.83
2018-03-03T00:42:49.795Z,98729.13
2018-03-03T00:45:18.215Z,98733.91
2018-03-03T00:47:46.629Z,98725.90
2018-03-03T00:50:15.109Z,98733.73
2018-03-03T00:52:43.545Z,98744.75
2018-03-03T00:55:11.960Z,98738.11
2018-03-03T00:57:40.441Z,98741.32
2018-03-03T01:00:08.855Z,98746.32
2018-03-03T01:02:37.281Z,98738.91
2018-03-03T01:05:05.762Z,98745.19
2018-03-03T01:07:34.214Z,98747.59
2018-03-03T01:10:02.630Z,98748.54
2018-03-03T01:12:31.101Z,98743.75
2018-03-03T01:14:59.527Z,98741.28
2018-03-03T01:17:27.959Z,98745.84
2018-03-03T01:19:56.431Z,98735.20
2018-03-03T01:22:24.870Z,98742.84
2018-03-03T01:24:53.294Z,98734.52
2018-03-03T01:27:21.755Z,98733.19
2018-03-03T01:29:50.184Z,98735.47
2018-03-03T01:32:18.611Z,98738.50
2018-03-03T01:34:47.094Z,98726.30
2018-03-03T01:37:15.528Z,98730.13
2018-03-03T01:39:43.956Z,98729.38
2018-03-03T01:42:12.425Z,98727.28
2018-03-03T01:44:40.855Z,98730.79
2018-03-03T01:47:09.299Z,98731.08
2018-03-03T01:49:37.775Z,98740.86
2018-03-03T01:52:06.194Z,98733.08
2018-03-03T01:54:34.628Z,98731.00
2018-03-03T01:57:03.094Z,98729.96
2018-03-03T01:59:31.510Z,98729.62
2018-03-03T02:01:59.936Z,98721.17
2018-03-03T02:04:28.394Z,98732.22
2018-03-03T02:06:56.805Z,98732.39
2018-03-03T02:09:25.222Z,98731.91
2018-03-03T02:11:53.670Z,98734.02
2018-03-03T02:14:22.101Z,98724.27
2018-03-03T02:16:50.537Z,98717.08
2018-03-03T02:19:19.016Z,98710.59
2018-03-03T02:21:47.442Z,98709.55
2018-03-03T02:24:15.878Z,98704.58
2018-03-03T02:26:44.364Z,98709.44
2018-03-03T02:29:12.802Z,98710.42
2018-03-03T02:31:41.234Z,98709.47
2018-03-03T02:34:09.694Z,98703.91
2018-03-03T02:36:38.140Z,98694.70
2018-03-03T02:39:06.585Z,98700.44
2018-03-03T02:41:35.061Z,98705.55
2018-03-03T02:44:03.518Z,98703.05
2018-03-03T02:46:31.939Z,98692.50
2018-03-03T02:49:00.390Z,98702.35
2018-03-03T02:51:28.855Z,98693.17
2018-03-03T02:53:57.279Z,98692.78
2018-03-03T02:56:25.930Z,98695.77
2018-03-03T02:58:54.366Z,98702.92
2018-03-03T03:01:22.779Z,98702.45
2018-03-03T03:03:51.245Z,98692.23
2018-03-03T03:06:19.680Z,98698.84
2018-03-03T03:08:48.112Z,98705.47
2018-03-03T03:11:16.567Z,98694.45
2018-03-03T03:13:45.002Z,98692.61
2018-03-03T03:16:13.418Z,98694.59
2018-03-03T03:18:41.870Z,98689.09
2018-03-03T03:21:10.290Z,98695.83
2018-03-03T03:23:38.737Z,98698.19
2018-03-03T03:26:07.207Z,98692.27
2018-03-03T03:28:35.626Z,98688.53
2018-03-03T03:31:04.068Z,98689.64
2018-03-03T03:33:32.542Z,98692.94
2018-03-03T03:36:00.969Z,98684.70
2018-03-03T03:38:29.400Z,98692.41
2018-03-03T03:40:57.880Z,98689.14
2018-03-03T03:43:26.316Z,98693.25
2018-03-03T03:45:54.752Z,98695.11
2018-03-03T03:48:23.240Z,98686.45
2018-03-03T03:50:51.655Z,98687.67
2018-03-03T03:53:20.066Z,98688.66
2018-03-03T03:55:48.537Z,98690.10
2018-03-03T03:58:16.968Z,98687.34
2018-03-03T04:00:45.386Z,98684.20
2018-03-03T04:03:13.870Z,98680.81
2018-03-03T04:05:42.295Z,98675.85
2018-03-03T04:08:10.728Z,98668.91
2018-03-03T04:10:39.235Z,98674.14
2018-03-03T04:13:07.672Z,98677.27
2018-03-03T04:15:36.111Z,98666.00
2018-03-03T04:18:04.570Z,98670.87
2018-03-03T04:20:33.015Z,98671.50
2018-03-03T04:23:01.449Z,98677.59
2018-03-03T04:25:29.946Z,98672.72
2018-03-03T04:27:58.392Z,98666.09
2018-03-03T04:30:26.837Z,98666.92
2018-03-03T04:32:55.322Z,98672.23
2018-03-03T04:35:23.757Z,98668.27
2018-03-03T04:37:52.209Z,98659.77
2018-03-03T04:40:20.847Z,98659.47
2018-03-03T04:42:49.277Z,98658.18
2018-03-03T04:45:17.708Z,98655.36
2018-03-03T04:47:46.197Z,98663.09
2018-03-03T04:50:14.647Z,98652.27
2018-03-03T04:52:43.091Z,98651.14
2018-03-03T04:55:11.570Z,98652.33
2018-03-03T04:57:40.002Z,98646.30
2018-03-03T05:00:14.005Z,98641.60
2018-03-03T05:02:47.939Z,98630.86
2018-03-03T05:05:18.275Z,98626.39
2018-03-03T05:07:55.200Z,98628.56
2018-03-03T05:10:26.036Z,98626.55
2018-03-03T05:12:55.284Z,98628.19
2018-03-03T05:15:29.382Z,98632.06
2018-03-03T05:18:03.436Z,98628.41
2018-03-03T05:20:34.485Z,98622.08
2018-03-03T05:23:08.330Z,98631.89
2018-03-03T05:25:42.777Z,98628.87
2018-03-03T05:31:22.602Z,98623.55
2018-03-03T05:36:59.475Z,98618.36
2018-03-03T05:39:33.502Z,98618.55
2018-03-03T05:45:13.289Z,98617.07
2018-03-03T05:47:49.209Z,98611.27
2018-03-03T05:53:34.385Z,98621.03
2018-03-03T05:56:11.153Z,98627.67
2018-03-03T05:58:45.358Z,98637.52
2018-03-03T06:01:20.401Z,98627.44
2018-03-03T06:03:59.759Z,98634.30
2018-03-03T06:09:33.392Z,98627.19
2018-03-03T06:12:01.837Z,98624.14
2018-03-03T06:14:30.277Z,98624.77
2018-03-03T06:16:58.749Z,98619.16
2018-03-03T06:19:27.192Z,98620.15
2018-03-03T06:21:55.658Z,98618.20
2018-03-03T06:24:24.134Z,98624.75
2018-03-03T06:26:52.567Z,98624.52
2018-03-03T06:29:20.998Z,98627.86
2018-03-03T06:31:49.465Z,98638.51
2018-03-03T06:34:17.897Z,98628.83
2018-03-03T06:36:46.317Z,98633.89
2018-03-03T06:39:14.782Z,98644.63
2018-03-03T06:41:43.215Z,98635.92
2018-03-03T06:44:11.627Z,98646.36
2018-03-03T06:46:40.097Z,98647.17
2018-03-03T06:49:08.515Z,98639.88
2018-03-03T06:51:36.946Z,98640.80
2018-03-03T06:54:05.433Z,98648.72
2018-03-03T06:56:33.867Z,98649.94
2018-03-03T06:59:02.301Z,98654.22
2018-03-03T07:01:30.771Z,98655.34
2018-03-03T07:03:59.206Z,98659.48
2018-03-03T07:06:27.649Z,98655.16
2018-03-03T07:08:56.129Z,98652.18
2018-03-03T07:11:24.570Z,98659.24
2018-03-03T07:13:53.037Z,98657.91
2018-03-03T07:16:21.512Z,98661.88
2018-03-03T07:18:49.923Z,98663.45
2018-03-03T07:21:18.409Z,98671.10
2018-03-03T07:23:46.902Z,98677.12
2018-03-03T07:26:15.333Z,98670.38
2018-03-03T07:28:43.767Z,98666.98
2018-03-03T07:31:12.241Z,98665.52
2018-03-03T07:33:40.673Z,98669.17
2018-03-03T07:36:09.128Z,98674.25
2018-03-03T07:38:37.602Z,98681.06
2018-03-03T07:41:06.023Z,98678.89
2018-03-03T07:43:34.457Z,98675.64
2018-03-03T07:46:02.922Z,98669.83
2018-03-03T07:48:31.364Z,98675.06
2018-03-03T07:50:59.828Z,98666.91
2018-03-03T07:53:28.318Z,98668.25
2018-03-03T07:55:56.752Z,98672.06
2018-03-03T08:01:26.153Z,98676.48
2018-03-03T08:03:54.651Z,98670.33
2018-03-03T08:06:23.072Z,98670.87
2018-03-03T08:08:51.502Z,98665.64
2018-03-03T08:11:19.974Z,98674.55
2018-03-03T08:13:48.408Z,98677.90
2018-03-03T08:16:16.849Z,98677.50
2018-03-03T08:18:45.317Z,98677.22
2018-03-03T08:21:13.813Z,98678.16
2018-03-03T08:23:42.234Z,98680.83
2018-03-03T08:26:10.705Z,98686.84
2018-03-03T08:28:39.140Z,98673.91
2018-03-03T08:31:07.600Z,98667.05
2018-03-03T08:33:36.107Z,98669.61
2018-03-03T08:36:04.534Z,98659.73
2018-03-03T08:38:32.958Z,98654.20
2018-03-03T08:41:01.423Z,98647.49
2018-03-03T08:43:29.851Z,98651.28
2018-03-03T08:45:58.278Z,98648.81
2018-03-03T08:48:26.753Z,98657.88
2018-03-03T08:50:55.193Z,98664.20
2018-03-03T08:53:23.615Z,98650.95
2018-03-03T08:55:52.075Z,98658.02
2018-03-03T08:58:20.501Z,98648.79
2018-03-03T09:00:48.937Z,98651.69
2018-03-03T09:03:17.426Z,98651.05
2018-03-03T09:05:45.838Z,98646.58
2018-03-03T09:08:14.270Z,98650.66
2018-03-03T09:10:42.778Z,98662.36
2018-03-03T09:13:11.261Z,98657.05
2018-03-03T09:15:39.694Z,98651.16
2018-03-03T09:18:08.167Z,98647.47
2018-03-03T09:20:36.611Z,98657.38
2018-03-03T09:23:05.048Z,98657.58
2018-03-03T09:25:33.523Z,98657.67
2018-03-03T09:28:01.961Z,98658.56
2018-03-03T09:30:30.412Z,98658.53
2018-03-03T09:32:58.893Z,98649.19
2018-03-03T09:35:27.330Z,98653.32
2018-03-03T09:37:55.782Z,98646.90
2018-03-03T09:40:24.248Z,98642.71
2018-03-03T09:42:52.694Z,98642.70
2018-03-03T09:45:21.138Z,98643.80
2018-03-03T09:47:49.632Z,98637.42
2018-03-03T09:50:18.080Z,98640.23
2018-03-03T09:52:46.535Z,98645.46
2018-03-03T09:55:15.033Z,98645.34
2018-03-03T09:57:43.462Z,98642.27
2018-03-03T10:00:11.971Z,98636.86
2018-03-03T10:02:40.469Z,98638.98
2018-03-03T10:05:08.898Z,98640.70
2018-03-03T10:07:37.337Z,98644.09
2018-03-03T10:10:05.832Z,98636.47
2018-03-03T10:12:34.262Z,98630.32
2018-03-03T10:15:02.751Z,98628.19
2018-03-03T10:17:31.433Z,98636.28
2018-03-03T10:19:59.873Z,98633.74
2018-03-03T10:22:28.311Z,98628.16
2018-03-03T10:24:56.779Z,98628.95
2018-03-03T10:27:25.225Z,98622.20
2018-03-03T10:29:53.668Z,98627.29
2018-03-03T10:32:22.155Z,98612.94
2018-03-03T10:34:50.590Z,98611.70
2018-03-03T10:37:19.040Z,98634.32
2018-03-03T10:39:47.614Z,98618.48
2018-03-03T10:42:15.999Z,98611.50
2018-03-03T10:44:44.426Z,98611.28
2018-03-03T10:47:12.909Z,98620.34
2018-03-03T10:49:41.383Z,98614.49
2018-03-03T10:52:09.817Z,98617.59
2018-03-03T10:54:38.292Z,98608.27
2018-03-03T10:57:06.718Z,98618.58
2018-03-03T10:59:35.142Z,98607.02
2018-03-03T11:02:03.607Z,98612.45
2018-03-03T11:04:32.023Z,98614.28
2018-03-03T11:07:00.455Z,98606.70
2018-03-03T11:09:28.958Z,98606.84
2018-03-03T11:11:57.373Z,98607.11
2018-03-03T11:14:25.817Z,98619.14
2018-03-03T11:16:54.467Z,98611.19
2018-03-03T11:19:22.912Z,98622.13
2018-03-03T11:21:51.337Z,98623.44
2018-03-03T11:24:19.793Z,98620.14
2018-03-03T11:26:48.225Z,98616.80
2018-03-03T11:29:16.664Z,98616.84
2018-03-03T11:31:45.138Z,98614.02
2018-03-03T11:34:13.562Z,98622.66
2018-03-03T11:36:41.996Z,98619.53
2018-03-03T11:39:10.485Z,98625.02
2018-03-03T11:41:38.910Z,98623.18
2018-03-03T11:44:07.341Z,98614.07
2018-03-03T11:46:35.838Z,98625.67
2018-03-03T11:49:04.295Z,98622.33
2018-03-03T11:51:32.739Z,98614.16
2018-03-03T11:54:01.203Z,98613.20
2018-03-03T11:56:29.635Z,98625.28
2018-03-03T11:58:58.066Z,98623.77
2018-03-03T12:01:26.539Z,98621.39
2018-03-03T12:03:54.966Z,98618.92
2018-03-03T12:06:23.384Z,98638.14
2018-03-03T12:08:51.875Z,98621.92
2018-03-03T12:11:20.329Z,98626.98
2018-03-03T12:13:48.785Z,98626.81
2018-03-03T12:16:17.310Z,98623.04
2018-03-03T12:18:45.757Z,98627.52
2018-03-03T12:21:14.185Z,98632.67
2018-03-03T12:23:42.646Z,98632.18
2018-03-03T12:26:11.088Z,98618.58
2018-03-03T12:28:39.541Z,98624.02
2018-03-03T12:31:08.006Z,98615.86
2018-03-03T12:33:36.425Z,98620.77
2018-03-03T12:36:04.851Z,98614.98
2018-03-03T12:38:33.337Z,98609.67
2018-03-03T12:41:01.776Z,98609.48
2018-03-03T12:43:30.212Z,98611.76
2018-03-03T12:45:58.683Z,98608.91
2018-03-03T12:48:27.130Z,98606.56
2018-03-03T12:50:55.570Z,98602.26
2018-03-03T12:53:24.051Z,98602.80
2018-03-03T12:55:52.478Z,98608.47
2018-03-03T12:58:20.918Z,98596.25
2018-03-03T13:00:49.386Z,98597.87
2018-03-03T13:03:17.819Z,98602.15
2018-03-03T13:05:46.253Z,98590.17
2018-03-03T13:08:14.749Z,98593.75
2018-03-03T13:10:43.172Z,98597.52
2018-03-03T13:13:11.598Z,98593.50
2018-03-03T13:15:40.062Z,98591.45
2018-03-03T13:18:08.486Z,98590.55
2018-03-03T13:20:36.922Z,98579.02
2018-03-03T13:23:05.398Z,98590.02
2018-03-03T13:25:33.834Z,98584.48
2018-03-03T13:28:02.281Z,98585.80
2018-03-03T13:30:30.755Z,98585.63
2018-03-03T13:32:59.188Z,98587.28
2018-03-03T13:35:27.619Z,98581.50
2018-03-03T13:37:56.082Z,98581.79
2018-03-03T13:40:24.534Z,98583.59
2018-03-03T13:42:52.977Z,98583.05
2018-03-03T13:45:21.456Z,98581.91
2018-03-03T13:47:49.882Z,98576.91
2018-03-03T13:50:18.322Z,98580.09
2018-03-03T13:52:46.784Z,98572.63
2018-03-03T13:55:15.214Z,98576.34
2018-03-03T13:57:43.642Z,98574.63
2018-03-03T14:00:12.118Z,98578.06
2018-03-03T14:02:40.548Z,98572.69
2018-03-03T14:05:09.016Z,98573.45
2018-03-03T14:07:37.488Z,98566.50
2018-03-03T14:10:05.946Z,98567.01
2018-03-03T14:12:34.389Z,98573.19
2018-03-03T14:15:02.854Z,98561.64
2018-03-03T14:17:31.308Z,98568.28
2018-03-03T14:19:59.757Z,98561.55
2018-03-03T14:22:28.223Z,98562.13
2018-03-03T14:24:56.684Z,98560.31
2018-03-03T14:27:25.136Z,98560.53
2018-03-03T14:29:53.850Z,98565.26
2018-03-03T14:32:22.279Z,98557.61
2018-03-03T14:34:50.719Z,98560.41
2018-03-03T14:37:19.186Z,98553.44
2018-03-03T14:39:47.612Z,98553.48
2018-03-03T14:42:16.038Z,98565.81
2018-03-03T14:44:44.525Z,98560.70
2018-03-03T14:47:12.947Z,98570.36
2018-03-03T14:49:41.377Z,98560.64
2018-03-03T14:52:09.910Z,98566.14
2018-03-03T14:54:38.334Z,98565.06
2018-03-03T14:57:06.753Z,98575.19
2018-03-03T14:59:35.244Z,98573.05
2018-03-03T15:02:03.667Z,98573.10
2018-03-03T15:04:32.103Z,98570.97
2018-03-03T15:07:00.574Z,98567.01
2018-03-03T15:09:29.007Z,98574.92
2018-03-03T15:11:57.435Z,98572.58
2018-03-03T15:14:25.891Z,98572.17
2018-03-03T15:16:54.329Z,98578.56
2018-03-03T15:19:22.750Z,98582.41
2018-03-03T15:21:51.202Z,98589.45
2018-03-03T15:24:19.618Z,98576.23
2018-03-03T15:26:48.052Z,98570.20
2018-03-03T15:29:16.539Z,98578.56
2018-03-03T15:31:44.969Z,98587.90
2018-03-03T15:34:13.419Z,98583.44
2018-03-03T15:36:41.916Z,98586.71
2018-03-03T15:39:10.349Z,98592.90
2018-03-03T15:41:38.779Z,98600.27
2018-03-03T15:44:07.242Z,98589.61
2018-03-03T15:46:35.671Z,98575.13
2018-03-03T15:49:04.086Z,98565.49
2018-03-03T15:51:32.574Z,98563.28
2018-03-03T15:54:01.016Z,98575.61
2018-03-03T15:56:29.462Z,98571.06
2018-03-03T15:58:57.951Z,98572.78
2018-03-03T16:01:27.354Z,98566.97
2018-03-03T16:03:55.803Z,98578.02
2018-03-03T16:06:24.300Z,98582.48
2018-03-03T16:08:52.746Z,98572.90
2018-03-03T16:11:21.189Z,98566.80
2018-03-03T16:13:49.682Z,98575.84
2018-03-03T16:16:18.125Z,98578.42
2018-03-03T16:18:46.556Z,98583.25
2018-03-03T16:21:15.041Z,98589.44
2018-03-03T16:23:43.485Z,98594.30
2018-03-03T16:26:12.290Z,98590.45
2018-03-03T16:28:40.793Z,98591.80
2018-03-03T16:31:09.235Z,98603.23
2018-03-03T16:33:37.844Z,98595.37
2018-03-03T16:36:06.345Z,98597.45
2018-03-03T16:38:34.782Z,98591.06
2018-03-03T16:41:03.234Z,98596.75
2018-03-03T16:43:31.734Z,98601.38
2018-03-03T16:46:00.189Z,98598.75
2018-03-03T16:48:28.632Z,98605.30
2018-03-03T16:50:57.095Z,98607.92
2018-03-03T16:53:25.511Z,98620.48
2018-03-03T16:55:53.944Z,98618.73
2018-03-03T16:58:22.411Z,98620.75
2018-03-03T17:00:50.831Z,98624.98
2018-03-03T17:03:19.276Z,98622.73
2018-03-03T17:05:47.763Z,98628.17
2018-03-03T17:08:16.200Z,98635.48
2018-03-03T17:10:44.634Z,98631.45
2018-03-03T17:13:13.098Z,98634.56
2018-03-03T17:15:41.538Z,98638.10
2018-03-03T17:18:09.972Z,98634.52
2018-03-03T17:20:38.444Z,98647.70
2018-03-03T17:23:06.867Z,98649.20
2018-03-03T17:25:35.313Z,98657.51
2018-03-03T17:28:03.779Z,98654.52
2018-03-03T17:30:32.205Z,98651.31
2018-03-03T17:33:00.645Z,98643.87
2018-03-03T17:35:29.108Z,98648.89
2018-03-03T17:37:57.532Z,98655.45
2018-03-03T17:40:25.966Z,98659.94
2018-03-03T17:42:54.447Z,98656.35
2018-03-03T17:45:22.889Z,98661.47
2018-03-03T17:47:51.329Z,98669.97
2018-03-03T17:50:19.802Z,98673.55
2018-03-03T17:52:48.242Z,98668.66
2018-03-03T17:55:16.698Z,98667.53
2018-03-03T17:57:45.178Z,98674.42
2018-03-03T18:00:13.598Z,98660.51
2018-03-03T18:02:42.050Z,98669.71
2018-03-03T18:05:10.542Z,98665.19
2018-03-03T18:07:38.955Z,98663.18
2018-03-03T18:10:07.393Z,98669.12
2018-03-03T18:12:35.914Z,98662.61
2018-03-03T18:15:04.358Z,98666.54
2018-03-03T18:17:32.799Z,98671.25
2018-03-03T18:20:01.263Z,98672.71
2018-03-03T18:22:29.669Z,98666.81
2018-03-03T18:24:58.089Z,98671.48
2018-03-03T18:27:26.566Z,98664.08
2018-03-03T18:29:55.029Z,98673.77
2018-03-03T18:32:23.464Z,98673.31
2018-03-03T18:34:51.935Z,98670.62
2018-03-03T18:37:20.347Z,98663.73
2018-03-03T18:39:48.777Z,98660.27
2018-03-03T18:42:17.234Z,98659.25
2018-03-03T18:44:45.651Z,98653.34
2018-03-03T18:47:14.062Z,98660.95
2018-03-03T18:49:42.541Z,98657.23
2018-03-03T18:52:10.970Z,98663.00
2018-03-03T18:54:39.381Z,98659.55
2018-03-03T18:57:07.855Z,98667.70
2018-03-03T18:59:36.275Z,98662.33
2018-03-03T19:02:04.728Z,98663.94
2018-03-03T19:04:33.210Z,98668.02
2018-03-03T19:07:01.647Z,98664.98
2018-03-03T19:09:30.085Z,98660.39
2018-03-03T19:11:58.716Z,98660.88
2018-03-03T19:14:27.154Z,98659.13
2018-03-03T19:16:55.642Z,98657.81
2018-03-03T19:19:24.105Z,98664.70
2018-03-03T19:21:52.533Z,98659.34
2018-03-03T19:24:20.946Z,98665.52
2018-03-03T19:26:49.439Z,98662.72
2018-03-03T19:29:17.861Z,98666.83
2018-03-03T19:31:46.274Z,98663.09
2018-03-03T19:34:14.732Z,98663.39
2018-03-03T19:36:43.153Z,98665.23
2018-03-03T19:39:11.584Z,98671.25
2018-03-03T19:41:40.088Z,98674.50
2018-03-03T19:44:08.514Z,98675.14
2018-03-03T19:46:36.956Z,98671.92
2018-03-03T19:49:05.423Z,98676.07
2018-03-03T19:51:33.838Z,98675.41
2018-03-03T19:54:02.259Z,98674.80
2018-03-03T19:56:30.740Z,98667.73
2018-03-03T19:58:59.178Z,98665.30
2018-03-03T20:01:27.593Z,98667.33
2018-03-03T20:03:56.114Z,98664.83
2018-03-03T20:06:24.543Z,98660.98
2018-03-03T20:08:52.970Z,98673.83
2018-03-03T20:11:21.444Z,98671.52
2018-03-03T20:13:49.877Z,98676.15
2018-03-03T20:16:18.286Z,98679.59
2018-03-03T20:18:46.773Z,98673.27
2018-03-03T20:21:15.213Z,98675.97
2018-03-03T20:23:43.649Z,98683.25
2018-03-03T20:26:12.121Z,98676.41
2018-03-03T20:28:40.543Z,98676.08
2018-03-03T20:31:08.981Z,98680.97
2018-03-03T20:33:37.446Z,98672.64
2018-03-03T20:36:05.868Z,98672.75
2018-03-03T20:38:34.300Z,98672.00
2018-03-03T20:41:02.781Z,98676.41
2018-03-03T20:43:31.210Z,98679.40
2018-03-03T20:45:59.630Z,98672.33
2018-03-03T20:48:28.096Z,98677.34
2018-03-03T20:50:56.533Z,98672.11
2018-03-03T20:53:24.981Z,98677.48
2018-03-03T20:55:53.510Z,98673.22
2018-03-03T20:58:21.951Z,98683.35
2018-03-03T21:00:50.529Z,98680.02
2018-03-03T21:03:19.026Z,98677.41
2018-03-03T21:05:47.487Z,98675.66
2018-03-03T21:08:15.907Z,98677.87
2018-03-03T21:10:44.381Z,98672.78
2018-03-03T21:13:12.842Z,98677.30
2018-03-03T21:15:41.277Z,98675.52
2018-03-03T21:18:09.748Z,98672.45
2018-03-03T21:20:38.184Z,98670.62
2018-03-03T21:23:06.602Z,98672.07
2018-03-03T21:25:35.081Z,98671.55
2018-03-03T21:28:03.500Z,98665.27
2018-03-03T21:30:31.919Z,98669.30
2018-03-03T21:33:00.392Z,98665.53
2018-03-03T21:35:28.825Z,98669.91
2018-03-03T21:37:57.253Z,98675.24
2018-03-03T21:40:25.715Z,98667.63
2018-03-03T21:42:54.136Z,98671.58
2018-03-03T21:45:22.550Z,98665.38
2018-03-03T21:47:51.020Z,98669.75
2018-03-03T21:50:19.467Z,98668.20
2018-03-03T21:52:47.903Z,98679.08
2018-03-03T21:55:16.367Z,98674.47
2018-03-03T21:57:44.783Z,98672.53
2018-03-03T22:00:13.239Z,98675.14
2018-03-03T22:02:41.771Z,98674.25
2018-03-03T22:05:10.216Z,98673.17
2018-03-03T22:07:38.662Z,98679.10
2018-03-03T22:10:07.254Z,98680.63
2018-03-03T22:12:35.653Z,98684.24
2018-03-03T22:15:04.176Z,98685.22
2018-03-03T22:17:33.601Z,98689.36
2018-03-03T22:20:02.043Z,98684.13
2018-03-03T22:22:30.488Z,98689.47
2018-03-03T22:24:58.990Z,98688.72
2018-03-03T22:27:27.422Z,98685.59
2018-03-03T22:29:55.858Z,98690.33
2018-03-03T22:32:24.329Z,98700.38
2018-03-03T22:34:52.758Z,98698.16
2018-03-03T22:37:21.194Z,98692.32
2018-03-03T22:39:49.673Z,98686.76
2018-03-03T22:42:19.223Z,98691.82
2018-03-03T22:44:47.671Z,98692.23
2018-03-03T22:47:16.156Z,98686.04
2018-03-03T22:49:44.589Z,98687.45
2018-03-03T22:52:13.045Z,98686.72
2018-03-03T22:54:41.513Z,98683.05
2018-03-03T22:57:09.939Z,98689.12
2018-03-03T22:59:38.380Z,98688.16
2018-03-03T23:02:06.874Z,98691.64
2018-03-03T23:04:35.298Z,98682.39
2018-03-03T23:07:03.715Z,98686.23
2018-03-03T23:09:32.179Z,98690.52
2018-03-03T23:12:00.619Z,98686.86
2018-03-03T23:14:29.057Z,98685.72
2018-03-03T23:16:57.541Z,98692.84
2018-03-03T23:19:25.996Z,98683.75
2018-03-03T23:21:54.437Z,98684.28
2018-03-03T23:24:22.917Z,98686.77
2018-03-03T23:26:51.365Z,98685.72
2018-03-03T23:29:19.798Z,98686.47
2018-03-03T23:31:48.257Z,98684.39
2018-03-03T23:34:16.690Z,98690.96
2018-03-03T23:36:45.111Z,98684.32
2018-03-03T23:39:13.600Z,98687.25
2018-03-03T23:41:42.049Z,98676.02
2018-03-03T23:44:10.478Z,98683.55
2018-03-03T23:46:38.953Z,98678.88
2018-03-03T23:49:07.374Z,98683.80
2018-03-03T23:51:35.804Z,98676.53
2018-03-03T23:54:04.632Z,98683.95
2018-03-03T23:56:33.061Z,98685.70
2018-03-03T23:59:01.478Z,98688.06
